sensor_id;sensor_type;location;lat;lon;timestamp;P1;durP1;ratioP1;P2;durP2;ratioP2
37677;SDS011;23517;50.390;8.616;2023-09-12T00:00:48;13.23;;;4.93;;
37677;SDS011;23517;50.390;8.616;2023-09-12T00:03:19;15.15;;;5.07;;
37677;SDS011;23517;50.390;8.616;2023-09-12T00:05:51;17.58;;;5.25;;
37677;SDS011;23517;50.390;8.616;2023-09-12T00:08:24;14.32;;;4.68;;
37677;SDS011;23517;50.390;8.616;2023-09-12T00:11:05;19.00;;;4.95;;
37677;SDS011;23517;50.390;8.616;2023-09-12T00:13:40;14.60;;;4.55;;
37677;SDS011;23517;50.390;8.616;2023-09-12T00:16:07;14.48;;;4.35;;
37677;SDS011;23517;50.390;8.616;2023-09-12T00:18:38;12.57;;;4.75;;
37677;SDS011;23517;50.390;8.616;2023-09-12T00:21:05;17.70;;;4.65;;
37677;SDS011;23517;50.390;8.616;2023-09-12T00:23:32;11.32;;;4.38;;
37677;SDS011;23517;50.390;8.616;2023-09-12T00:25:59;14.35;;;4.53;;
37677;SDS011;23517;50.390;8.616;2023-09-12T00:28:26;13.20;;;4.70;;
37677;SDS011;23517;50.390;8.616;2023-09-12T00:30:52;17.80;;;4.60;;
37677;SDS011;23517;50.390;8.616;2023-09-12T00:33:19;11.50;;;4.50;;
37677;SDS011;23517;50.390;8.616;2023-09-12T00:35:46;13.32;;;5.15;;
37677;SDS011;23517;50.390;8.616;2023-09-12T00:38:13;19.02;;;4.93;;
37677;SDS011;23517;50.390;8.616;2023-09-12T00:40:40;14.88;;;4.63;;
37677;SDS011;23517;50.390;8.616;2023-09-12T00:43:06;14.88;;;4.93;;
37677;SDS011;23517;50.390;8.616;2023-09-12T00:45:33;10.35;;;4.30;;
37677;SDS011;23517;50.390;8.616;2023-09-12T00:48:00;10.77;;;4.22;;
37677;SDS011;23517;50.390;8.616;2023-09-12T00:50:30;12.75;;;4.82;;
37677;SDS011;23517;50.390;8.616;2023-09-12T00:52:58;12.40;;;4.50;;
37677;SDS011;23517;50.390;8.616;2023-09-12T00:55:26;15.93;;;5.00;;
37677;SDS011;23517;50.390;8.616;2023-09-12T00:57:57;14.50;;;5.15;;
37677;SDS011;23517;50.390;8.616;2023-09-12T01:00:24;14.65;;;5.07;;
37677;SDS011;23517;50.390;8.616;2023-09-12T01:02:55;16.80;;;4.60;;
37677;SDS011;23517;50.390;8.616;2023-09-12T01:05:25;20.60;;;5.20;;
37677;SDS011;23517;50.390;8.616;2023-09-12T01:07:54;24.65;;;5.78;;
37677;SDS011;23517;50.390;8.616;2023-09-12T01:10:20;13.93;;;5.03;;
37677;SDS011;23517;50.390;8.616;2023-09-12T01:12:47;12.75;;;5.13;;
37677;SDS011;23517;50.390;8.616;2023-09-12T01:15:15;14.73;;;4.50;;
37677;SDS011;23517;50.390;8.616;2023-09-12T01:17:42;19.60;;;5.38;;
37677;SDS011;23517;50.390;8.616;2023-09-12T01:20:12;15.32;;;4.82;;
37677;SDS011;23517;50.390;8.616;2023-09-12T01:22:56;16.35;;;5.45;;
37677;SDS011;23517;50.390;8.616;2023-09-12T01:28:29;17.92;;;5.10;;
37677;SDS011;23517;50.390;8.616;2023-09-12T01:30:58;25.58;;;6.35;;
37677;SDS011;23517;50.390;8.616;2023-09-12T01:33:26;15.07;;;4.78;;
37677;SDS011;23517;50.390;8.616;2023-09-12T01:35:53;16.40;;;5.45;;
37677;SDS011;23517;50.390;8.616;2023-09-12T01:38:21;16.92;;;5.80;;
37677;SDS011;23517;50.390;8.616;2023-09-12T01:40:51;13.05;;;4.68;;
37677;SDS011;23517;50.390;8.616;2023-09-12T01:43:22;16.45;;;6.05;;
37677;SDS011;23517;50.390;8.616;2023-09-12T01:45:55;19.20;;;5.68;;
37677;SDS011;23517;50.390;8.616;2023-09-12T01:48:26;16.40;;;5.38;;
37677;SDS011;23517;50.390;8.616;2023-09-12T01:51:00;21.02;;;5.35;;
37677;SDS011;23517;50.390;8.616;2023-09-12T01:53:28;20.05;;;5.32;;
37677;SDS011;23517;50.390;8.616;2023-09-12T01:55:56;16.92;;;5.68;;
37677;SDS011;23517;50.390;8.616;2023-09-12T01:58:27;14.10;;;4.85;;
37677;SDS011;23517;50.390;8.616;2023-09-12T02:00:55;19.90;;;5.03;;
37677;SDS011;23517;50.390;8.616;2023-09-12T02:03:22;10.38;;;5.07;;
37677;SDS011;23517;50.390;8.616;2023-09-12T02:05:49;20.67;;;5.43;;
37677;SDS011;23517;50.390;8.616;2023-09-12T02:08:15;17.15;;;5.38;;
37677;SDS011;23517;50.390;8.616;2023-09-12T02:10:42;21.00;;;5.40;;
37677;SDS011;23517;50.390;8.616;2023-09-12T02:13:09;16.00;;;5.50;;
37677;SDS011;23517;50.390;8.616;2023-09-12T02:15:38;15.23;;;5.38;;
37677;SDS011;23517;50.390;8.616;2023-09-12T02:18:05;13.52;;;5.13;;
37677;SDS011;23517;50.390;8.616;2023-09-12T02:20:32;19.10;;;5.13;;
37677;SDS011;23517;50.390;8.616;2023-09-12T02:23:04;16.75;;;5.65;;
37677;SDS011;23517;50.390;8.616;2023-09-12T02:25:30;12.68;;;5.38;;
37677;SDS011;23517;50.390;8.616;2023-09-12T02:27:57;16.52;;;5.57;;
37677;SDS011;23517;50.390;8.616;2023-09-12T02:30:24;11.85;;;5.55;;
37677;SDS011;23517;50.390;8.616;2023-09-12T02:32:51;14.18;;;5.70;;
37677;SDS011;23517;50.390;8.616;2023-09-12T02:35:17;15.48;;;5.65;;
37677;SDS011;23517;50.390;8.616;2023-09-12T02:37:44;19.15;;;5.47;;
37677;SDS011;23517;50.390;8.616;2023-09-12T02:40:11;15.80;;;5.13;;
37677;SDS011;23517;50.390;8.616;2023-09-12T02:42:38;15.15;;;5.03;;
37677;SDS011;23517;50.390;8.616;2023-09-12T02:45:05;16.40;;;5.57;;
37677;SDS011;23517;50.390;8.616;2023-09-12T02:47:32;16.40;;;5.50;;
37677;SDS011;23517;50.390;8.616;2023-09-12T02:49:59;12.55;;;5.13;;
37677;SDS011;23517;50.390;8.616;2023-09-12T02:52:26;20.58;;;6.38;;
37677;SDS011;23517;50.390;8.616;2023-09-12T02:54:53;16.42;;;5.93;;
37677;SDS011;23517;50.390;8.616;2023-09-12T02:57:20;16.42;;;5.63;;
37677;SDS011;23517;50.390;8.616;2023-09-12T02:59:47;20.85;;;5.70;;
37677;SDS011;23517;50.390;8.616;2023-09-12T03:02:13;11.40;;;4.97;;
37677;SDS011;23517;50.390;8.616;2023-09-12T03:04:40;11.45;;;4.80;;
37677;SDS011;23517;50.390;8.616;2023-09-12T03:07:07;12.05;;;5.00;;
37677;SDS011;23517;50.390;8.616;2023-09-12T03:09:34;14.40;;;5.82;;
37677;SDS011;23517;50.390;8.616;2023-09-12T03:12:01;15.02;;;5.65;;
37677;SDS011;23517;50.390;8.616;2023-09-12T03:14:29;15.90;;;5.95;;
37677;SDS011;23517;50.390;8.616;2023-09-12T03:16:56;17.75;;;5.80;;
37677;SDS011;23517;50.390;8.616;2023-09-12T03:19:23;13.82;;;5.15;;
37677;SDS011;23517;50.390;8.616;2023-09-12T03:21:50;23.23;;;5.85;;
37677;SDS011;23517;50.390;8.616;2023-09-12T03:24:16;13.25;;;6.13;;
37677;SDS011;23517;50.390;8.616;2023-09-12T03:26:44;13.52;;;4.80;;
37677;SDS011;23517;50.390;8.616;2023-09-12T03:29:11;16.33;;;5.40;;
37677;SDS011;23517;50.390;8.616;2023-09-12T03:31:38;11.95;;;4.85;;
37677;SDS011;23517;50.390;8.616;2023-09-12T03:34:05;13.55;;;5.53;;
37677;SDS011;23517;50.390;8.616;2023-09-12T03:36:33;15.65;;;5.30;;
37677;SDS011;23517;50.390;8.616;2023-09-12T03:38:59;17.98;;;5.53;;
37677;SDS011;23517;50.390;8.616;2023-09-12T03:41:26;17.52;;;5.40;;
37677;SDS011;23517;50.390;8.616;2023-09-12T03:43:53;17.70;;;5.38;;
37677;SDS011;23517;50.390;8.616;2023-09-12T03:46:22;10.98;;;5.10;;
37677;SDS011;23517;50.390;8.616;2023-09-12T03:48:49;13.68;;;5.43;;
37677;SDS011;23517;50.390;8.616;2023-09-12T03:51:15;18.23;;;5.88;;
37677;SDS011;23517;50.390;8.616;2023-09-12T03:53:42;11.43;;;5.03;;
37677;SDS011;23517;50.390;8.616;2023-09-12T03:56:09;11.63;;;5.22;;
37677;SDS011;23517;50.390;8.616;2023-09-12T03:58:40;14.10;;;4.85;;
37677;SDS011;23517;50.390;8.616;2023-09-12T04:01:07;13.95;;;5.82;;
37677;SDS011;23517;50.390;8.616;2023-09-12T04:03:34;13.52;;;5.50;;
37677;SDS011;23517;50.390;8.616;2023-09-12T04:06:02;19.23;;;5.63;;
37677;SDS011;23517;50.390;8.616;2023-09-12T04:08:29;17.77;;;5.93;;
37677;SDS011;23517;50.390;8.616;2023-09-12T04:10:56;12.90;;;5.63;;
37677;SDS011;23517;50.390;8.616;2023-09-12T04:13:22;15.57;;;5.88;;
37677;SDS011;23517;50.390;8.616;2023-09-12T04:15:49;16.17;;;5.55;;
37677;SDS011;23517;50.390;8.616;2023-09-12T04:18:16;12.88;;;5.30;;
37677;SDS011;23517;50.390;8.616;2023-09-12T04:20:43;12.68;;;5.18;;
37677;SDS011;23517;50.390;8.616;2023-09-12T04:23:09;10.70;;;5.18;;
37677;SDS011;23517;50.390;8.616;2023-09-12T04:25:36;14.82;;;5.03;;
37677;SDS011;23517;50.390;8.616;2023-09-12T04:28:03;10.57;;;5.43;;
37677;SDS011;23517;50.390;8.616;2023-09-12T04:30:30;10.27;;;5.65;;
37677;SDS011;23517;50.390;8.616;2023-09-12T04:32:57;12.90;;;5.15;;
37677;SDS011;23517;50.390;8.616;2023-09-12T04:35:23;10.60;;;5.45;;
37677;SDS011;23517;50.390;8.616;2023-09-12T04:37:51;18.08;;;5.68;;
37677;SDS011;23517;50.390;8.616;2023-09-12T04:40:18;14.40;;;5.53;;
37677;SDS011;23517;50.390;8.616;2023-09-12T04:42:44;14.20;;;5.45;;
37677;SDS011;23517;50.390;8.616;2023-09-12T04:45:11;18.23;;;5.68;;
37677;SDS011;23517;50.390;8.616;2023-09-12T04:47:38;12.82;;;5.72;;
37677;SDS011;23517;50.390;8.616;2023-09-12T04:50:05;13.50;;;5.20;;
37677;SDS011;23517;50.390;8.616;2023-09-12T04:52:32;15.30;;;5.47;;
37677;SDS011;23517;50.390;8.616;2023-09-12T04:54:59;11.93;;;5.10;;
37677;SDS011;23517;50.390;8.616;2023-09-12T04:57:27;11.32;;;5.35;;
37677;SDS011;23517;50.390;8.616;2023-09-12T04:59:57;16.55;;;5.82;;
37677;SDS011;23517;50.390;8.616;2023-09-12T05:02:26;11.73;;;5.20;;
37677;SDS011;23517;50.390;8.616;2023-09-12T05:04:53;12.70;;;5.15;;
37677;SDS011;23517;50.390;8.616;2023-09-12T05:07:20;14.07;;;4.82;;
37677;SDS011;23517;50.390;8.616;2023-09-12T05:09:46;14.45;;;5.28;;
37677;SDS011;23517;50.390;8.616;2023-09-12T05:12:13;8.50;;;4.95;;
37677;SDS011;23517;50.390;8.616;2023-09-12T05:14:40;10.93;;;5.28;;
37677;SDS011;23517;50.390;8.616;2023-09-12T05:17:07;11.30;;;5.75;;
37677;SDS011;23517;50.390;8.616;2023-09-12T05:19:34;14.40;;;6.30;;
37677;SDS011;23517;50.390;8.616;2023-09-12T05:22:00;12.90;;;4.65;;
37677;SDS011;23517;50.390;8.616;2023-09-12T05:24:29;14.77;;;5.18;;
37677;SDS011;23517;50.390;8.616;2023-09-12T05:26:56;12.60;;;5.05;;
37677;SDS011;23517;50.390;8.616;2023-09-12T05:29:23;16.10;;;5.60;;
37677;SDS011;23517;50.390;8.616;2023-09-12T05:31:50;20.38;;;6.00;;
37677;SDS011;23517;50.390;8.616;2023-09-12T05:34:17;13.57;;;5.70;;
37677;SDS011;23517;50.390;8.616;2023-09-12T05:36:44;13.45;;;5.82;;
37677;SDS011;23517;50.390;8.616;2023-09-12T05:39:11;11.45;;;5.20;;
37677;SDS011;23517;50.390;8.616;2023-09-12T05:41:40;13.82;;;5.47;;
37677;SDS011;23517;50.390;8.616;2023-09-12T05:44:06;14.60;;;5.90;;
37677;SDS011;23517;50.390;8.616;2023-09-12T05:46:33;20.10;;;5.70;;
37677;SDS011;23517;50.390;8.616;2023-09-12T05:49:00;17.27;;;5.38;;
37677;SDS011;23517;50.390;8.616;2023-09-12T05:51:27;20.25;;;5.40;;
37677;SDS011;23517;50.390;8.616;2023-09-12T05:53:53;16.05;;;5.80;;
37677;SDS011;23517;50.390;8.616;2023-09-12T05:56:22;18.48;;;6.43;;
37677;SDS011;23517;50.390;8.616;2023-09-12T05:58:48;12.23;;;5.38;;
37677;SDS011;23517;50.390;8.616;2023-09-12T06:01:16;12.90;;;5.00;;
37677;SDS011;23517;50.390;8.616;2023-09-12T06:03:43;11.77;;;5.10;;
37677;SDS011;23517;50.390;8.616;2023-09-12T06:06:10;12.50;;;5.30;;
37677;SDS011;23517;50.390;8.616;2023-09-12T06:08:38;14.90;;;5.28;;
37677;SDS011;23517;50.390;8.616;2023-09-12T06:11:04;13.55;;;5.55;;
37677;SDS011;23517;50.390;8.616;2023-09-12T06:13:31;11.45;;;5.40;;
37677;SDS011;23517;50.390;8.616;2023-09-12T06:15:59;12.50;;;5.78;;
37677;SDS011;23517;50.390;8.616;2023-09-12T06:18:26;14.10;;;5.10;;
37677;SDS011;23517;50.390;8.616;2023-09-12T06:20:56;13.40;;;5.60;;
37677;SDS011;23517;50.390;8.616;2023-09-12T06:23:24;14.32;;;4.88;;
37677;SDS011;23517;50.390;8.616;2023-09-12T06:25:51;15.52;;;5.47;;
37677;SDS011;23517;50.390;8.616;2023-09-12T06:28:29;12.82;;;4.80;;
37677;SDS011;23517;50.390;8.616;2023-09-12T06:30:57;11.98;;;4.88;;
37677;SDS011;23517;50.390;8.616;2023-09-12T06:33:25;18.52;;;5.07;;
37677;SDS011;23517;50.390;8.616;2023-09-12T06:35:53;16.42;;;6.32;;
37677;SDS011;23517;50.390;8.616;2023-09-12T06:38:22;15.07;;;5.15;;
37677;SDS011;23517;50.390;8.616;2023-09-12T06:40:50;16.80;;;5.68;;
37677;SDS011;23517;50.390;8.616;2023-09-12T06:43:17;19.13;;;4.68;;
37677;SDS011;23517;50.390;8.616;2023-09-12T06:45:44;16.95;;;4.93;;
37677;SDS011;23517;50.390;8.616;2023-09-12T06:48:11;13.23;;;4.93;;
37677;SDS011;23517;50.390;8.616;2023-09-12T06:50:38;15.73;;;5.28;;
37677;SDS011;23517;50.390;8.616;2023-09-12T06:53:05;14.70;;;5.55;;
37677;SDS011;23517;50.390;8.616;2023-09-12T06:55:33;14.13;;;4.82;;
37677;SDS011;23517;50.390;8.616;2023-09-12T06:58:00;13.18;;;5.05;;
37677;SDS011;23517;50.390;8.616;2023-09-12T07:00:27;19.80;;;4.90;;
37677;SDS011;23517;50.390;8.616;2023-09-12T07:02:54;12.05;;;4.85;;
37677;SDS011;23517;50.390;8.616;2023-09-12T07:05:21;18.80;;;5.65;;
37677;SDS011;23517;50.390;8.616;2023-09-12T07:07:47;16.40;;;5.05;;
37677;SDS011;23517;50.390;8.616;2023-09-12T07:10:14;14.18;;;5.72;;
37677;SDS011;23517;50.390;8.616;2023-09-12T07:12:50;11.85;;;4.90;;
37677;SDS011;23517;50.390;8.616;2023-09-12T07:15:18;13.35;;;4.85;;
37677;SDS011;23517;50.390;8.616;2023-09-12T07:17:45;16.30;;;5.72;;
37677;SDS011;23517;50.390;8.616;2023-09-12T07:20:13;18.17;;;5.95;;
37677;SDS011;23517;50.390;8.616;2023-09-12T07:22:40;17.38;;;5.28;;
37677;SDS011;23517;50.390;8.616;2023-09-12T07:25:07;17.92;;;5.70;;
37677;SDS011;23517;50.390;8.616;2023-09-12T07:27:35;10.40;;;5.00;;
37677;SDS011;23517;50.390;8.616;2023-09-12T07:30:03;21.02;;;5.57;;
37677;SDS011;23517;50.390;8.616;2023-09-12T07:32:31;14.00;;;5.18;;
37677;SDS011;23517;50.390;8.616;2023-09-12T07:34:58;22.67;;;5.85;;
37677;SDS011;23517;50.390;8.616;2023-09-12T07:37:25;14.02;;;5.25;;
37677;SDS011;23517;50.390;8.616;2023-09-12T07:39:51;16.70;;;5.97;;
37677;SDS011;23517;50.390;8.616;2023-09-12T07:42:21;17.65;;;5.70;;
37677;SDS011;23517;50.390;8.616;2023-09-12T07:44:49;19.67;;;5.45;;
37677;SDS011;23517;50.390;8.616;2023-09-12T07:47:16;18.98;;;5.25;;
37677;SDS011;23517;50.390;8.616;2023-09-12T07:49:43;16.83;;;4.80;;
37677;SDS011;23517;50.390;8.616;2023-09-12T07:52:10;19.60;;;5.00;;
37677;SDS011;23517;50.390;8.616;2023-09-12T07:54:37;10.75;;;4.40;;
37677;SDS011;23517;50.390;8.616;2023-09-12T07:57:03;21.83;;;4.85;;
37677;SDS011;23517;50.390;8.616;2023-09-12T07:59:30;20.02;;;4.90;;
37677;SDS011;23517;50.390;8.616;2023-09-12T08:01:57;21.42;;;5.10;;
37677;SDS011;23517;50.390;8.616;2023-09-12T08:04:24;19.17;;;4.90;;
37677;SDS011;23517;50.390;8.616;2023-09-12T08:06:52;17.35;;;4.25;;
37677;SDS011;23517;50.390;8.616;2023-09-12T08:09:44;18.92;;;5.30;;
37677;SDS011;23517;50.390;8.616;2023-09-12T08:12:18;17.10;;;4.03;;
37677;SDS011;23517;50.390;8.616;2023-09-12T08:14:46;14.52;;;4.25;;
37677;SDS011;23517;50.390;8.616;2023-09-12T08:17:15;13.73;;;3.78;;
37677;SDS011;23517;50.390;8.616;2023-09-12T08:19:42;19.05;;;4.85;;
37677;SDS011;23517;50.390;8.616;2023-09-12T08:22:09;15.88;;;3.97;;
37677;SDS011;23517;50.390;8.616;2023-09-12T08:24:38;12.70;;;3.58;;
37677;SDS011;23517;50.390;8.616;2023-09-12T08:27:05;18.10;;;4.20;;
37677;SDS011;23517;50.390;8.616;2023-09-12T08:29:33;16.27;;;3.55;;
37677;SDS011;23517;50.390;8.616;2023-09-12T08:32:00;13.63;;;3.58;;
37677;SDS011;23517;50.390;8.616;2023-09-12T08:34:27;13.07;;;3.83;;
37677;SDS011;23517;50.390;8.616;2023-09-12T08:36:54;21.40;;;4.18;;
37677;SDS011;23517;50.390;8.616;2023-09-12T08:39:24;14.15;;;3.80;;
37677;SDS011;23517;50.390;8.616;2023-09-12T08:41:53;14.90;;;3.53;;
37677;SDS011;23517;50.390;8.616;2023-09-12T08:44:21;11.70;;;3.78;;
37677;SDS011;23517;50.390;8.616;2023-09-12T08:46:47;12.23;;;3.72;;
37677;SDS011;23517;50.390;8.616;2023-09-12T08:49:15;20.75;;;4.40;;
37677;SDS011;23517;50.390;8.616;2023-09-12T08:51:44;18.48;;;3.50;;
37677;SDS011;23517;50.390;8.616;2023-09-12T08:54:11;13.48;;;4.20;;
37677;SDS011;23517;50.390;8.616;2023-09-12T08:56:39;13.82;;;3.95;;
37677;SDS011;23517;50.390;8.616;2023-09-12T08:59:08;14.80;;;4.00;;
37677;SDS011;23517;50.390;8.616;2023-09-12T09:01:36;13.27;;;3.67;;
37677;SDS011;23517;50.390;8.616;2023-09-12T09:04:04;20.90;;;4.30;;
37677;SDS011;23517;50.390;8.616;2023-09-12T09:06:31;15.18;;;4.18;;
37677;SDS011;23517;50.390;8.616;2023-09-12T09:09:04;19.27;;;4.38;;
37677;SDS011;23517;50.390;8.616;2023-09-12T09:11:32;18.58;;;3.92;;
37677;SDS011;23517;50.390;8.616;2023-09-12T09:14:01;18.50;;;4.05;;
37677;SDS011;23517;50.390;8.616;2023-09-12T09:16:29;15.70;;;4.20;;
37677;SDS011;23517;50.390;8.616;2023-09-12T09:19:01;12.68;;;4.10;;
37677;SDS011;23517;50.390;8.616;2023-09-12T09:21:32;24.25;;;4.20;;
37677;SDS011;23517;50.390;8.616;2023-09-12T09:24:01;13.50;;;4.13;;
37677;SDS011;23517;50.390;8.616;2023-09-12T09:26:41;23.02;;;4.18;;
37677;SDS011;23517;50.390;8.616;2023-09-12T09:29:16;13.10;;;4.22;;
37677;SDS011;23517;50.390;8.616;2023-09-12T09:31:46;14.60;;;4.00;;
37677;SDS011;23517;50.390;8.616;2023-09-12T09:34:18;18.38;;;4.13;;
37677;SDS011;23517;50.390;8.616;2023-09-12T09:36:48;16.02;;;4.65;;
37677;SDS011;23517;50.390;8.616;2023-09-12T09:39:15;10.73;;;3.95;;
37677;SDS011;23517;50.390;8.616;2023-09-12T09:41:47;13.73;;;4.00;;
37677;SDS011;23517;50.390;8.616;2023-09-12T09:44:20;16.52;;;4.60;;
37677;SDS011;23517;50.390;8.616;2023-09-12T09:46:55;18.83;;;4.88;;
37677;SDS011;23517;50.390;8.616;2023-09-12T09:49:31;11.35;;;4.50;;
37677;SDS011;23517;50.390;8.616;2023-09-12T09:52:01;16.40;;;5.05;;
37677;SDS011;23517;50.390;8.616;2023-09-12T09:54:30;24.38;;;5.15;;
37677;SDS011;23517;50.390;8.616;2023-09-12T09:56:58;14.65;;;4.57;;
37677;SDS011;23517;50.390;8.616;2023-09-12T09:59:25;13.48;;;4.57;;
37677;SDS011;23517;50.390;8.616;2023-09-12T10:01:57;14.13;;;4.63;;
37677;SDS011;23517;50.390;8.616;2023-09-12T10:04:26;14.82;;;4.88;;
37677;SDS011;23517;50.390;8.616;2023-09-12T10:06:55;19.13;;;5.05;;
37677;SDS011;23517;50.390;8.616;2023-09-12T10:09:25;15.95;;;4.45;;
37677;SDS011;23517;50.390;8.616;2023-09-12T10:11:54;18.92;;;5.00;;
37677;SDS011;23517;50.390;8.616;2023-09-12T10:14:22;12.75;;;4.30;;
37677;SDS011;23517;50.390;8.616;2023-09-12T10:16:50;12.70;;;4.35;;
37677;SDS011;23517;50.390;8.616;2023-09-12T10:19:19;13.98;;;4.47;;
37677;SDS011;23517;50.390;8.616;2023-09-12T10:21:55;12.13;;;4.65;;
37677;SDS011;23517;50.390;8.616;2023-09-12T10:24:44;13.07;;;5.35;;
37677;SDS011;23517;50.390;8.616;2023-09-12T10:27:12;22.52;;;4.45;;
37677;SDS011;23517;50.390;8.616;2023-09-12T10:29:40;20.42;;;4.75;;
37677;SDS011;23517;50.390;8.616;2023-09-12T10:32:08;12.27;;;4.40;;
37677;SDS011;23517;50.390;8.616;2023-09-12T10:34:35;11.85;;;4.55;;
37677;SDS011;23517;50.390;8.616;2023-09-12T10:37:04;18.00;;;4.60;;
37677;SDS011;23517;50.390;8.616;2023-09-12T10:39:32;17.75;;;5.03;;
37677;SDS011;23517;50.390;8.616;2023-09-12T10:42:01;15.55;;;5.13;;
37677;SDS011;23517;50.390;8.616;2023-09-12T10:44:31;12.57;;;4.47;;
37677;SDS011;23517;50.390;8.616;2023-09-12T10:46:59;15.15;;;4.55;;
37677;SDS011;23517;50.390;8.616;2023-09-12T10:49:27;14.88;;;4.82;;
37677;SDS011;23517;50.390;8.616;2023-09-12T10:51:54;22.20;;;4.07;;
37677;SDS011;23517;50.390;8.616;2023-09-12T10:54:25;18.30;;;4.47;;
37677;SDS011;23517;50.390;8.616;2023-09-12T10:57:07;19.58;;;4.60;;
37677;SDS011;23517;50.390;8.616;2023-09-12T11:00:08;20.35;;;4.93;;
37677;SDS011;23517;50.390;8.616;2023-09-12T11:02:30;18.92;;;4.38;;
37677;SDS011;23517;50.390;8.616;2023-09-12T11:05:03;13.43;;;4.47;;
37677;SDS011;23517;50.390;8.616;2023-09-12T11:07:59;15.23;;;4.40;;
37677;SDS011;23517;50.390;8.616;2023-09-12T11:10:30;17.40;;;4.43;;
37677;SDS011;23517;50.390;8.616;2023-09-12T11:12:58;21.63;;;5.65;;
37677;SDS011;23517;50.390;8.616;2023-09-12T11:15:27;17.08;;;4.45;;
37677;SDS011;23517;50.390;8.616;2023-09-12T11:18:04;15.07;;;4.57;;
37677;SDS011;23517;50.390;8.616;2023-09-12T11:20:48;15.10;;;4.50;;
37677;SDS011;23517;50.390;8.616;2023-09-12T11:23:25;14.00;;;4.53;;
37677;SDS011;23517;50.390;8.616;2023-09-12T11:26:05;12.38;;;4.65;;
37677;SDS011;23517;50.390;8.616;2023-09-12T11:28:33;14.50;;;4.57;;
37677;SDS011;23517;50.390;8.616;2023-09-12T11:31:00;23.38;;;4.60;;
37677;SDS011;23517;50.390;8.616;2023-09-12T11:33:27;16.10;;;4.65;;
37677;SDS011;23517;50.390;8.616;2023-09-12T11:35:55;13.63;;;4.25;;
37677;SDS011;23517;50.390;8.616;2023-09-12T11:38:30;11.65;;;4.13;;
37677;SDS011;23517;50.390;8.616;2023-09-12T11:40:58;11.98;;;3.92;;
37677;SDS011;23517;50.390;8.616;2023-09-12T11:43:26;11.55;;;4.07;;
37677;SDS011;23517;50.390;8.616;2023-09-12T11:45:55;13.25;;;4.53;;
37677;SDS011;23517;50.390;8.616;2023-09-12T11:48:23;15.10;;;4.38;;
37677;SDS011;23517;50.390;8.616;2023-09-12T11:50:54;17.75;;;4.50;;
37677;SDS011;23517;50.390;8.616;2023-09-12T11:53:25;17.80;;;4.38;;
37677;SDS011;23517;50.390;8.616;2023-09-12T11:55:57;18.98;;;4.60;;
37677;SDS011;23517;50.390;8.616;2023-09-12T11:58:25;15.25;;;4.15;;
37677;SDS011;23517;50.390;8.616;2023-09-12T12:00:56;18.00;;;4.88;;
37677;SDS011;23517;50.390;8.616;2023-09-12T12:03:25;19.10;;;4.60;;
37677;SDS011;23517;50.390;8.616;2023-09-12T12:05:54;13.75;;;4.35;;
37677;SDS011;23517;50.390;8.616;2023-09-12T12:08:22;11.95;;;4.13;;
37677;SDS011;23517;50.390;8.616;2023-09-12T12:10:52;18.92;;;4.60;;
37677;SDS011;23517;50.390;8.616;2023-09-12T12:13:20;14.40;;;4.35;;
37677;SDS011;23517;50.390;8.616;2023-09-12T12:15:50;16.33;;;4.30;;
37677;SDS011;23517;50.390;8.616;2023-09-12T12:18:17;17.40;;;4.50;;
37677;SDS011;23517;50.390;8.616;2023-09-12T12:20:44;14.02;;;4.35;;
37677;SDS011;23517;50.390;8.616;2023-09-12T12:23:11;14.35;;;3.92;;
37677;SDS011;23517;50.390;8.616;2023-09-12T12:25:38;11.07;;;4.10;;
37677;SDS011;23517;50.390;8.616;2023-09-12T12:28:06;13.02;;;3.53;;
37677;SDS011;23517;50.390;8.616;2023-09-12T12:30:35;19.65;;;4.45;;
37677;SDS011;23517;50.390;8.616;2023-09-12T12:33:07;14.95;;;4.57;;
37677;SDS011;23517;50.390;8.616;2023-09-12T12:36:04;9.65;;;3.67;;
37677;SDS011;23517;50.390;8.616;2023-09-12T12:38:35;15.20;;;4.30;;
37677;SDS011;23517;50.390;8.616;2023-09-12T12:41:10;20.17;;;4.60;;
37677;SDS011;23517;50.390;8.616;2023-09-12T12:43:42;22.42;;;4.55;;
37677;SDS011;23517;50.390;8.616;2023-09-12T12:46:10;17.13;;;3.80;;
37677;SDS011;23517;50.390;8.616;2023-09-12T12:48:42;17.20;;;4.40;;
37677;SDS011;23517;50.390;8.616;2023-09-12T12:51:16;14.52;;;4.18;;
37677;SDS011;23517;50.390;8.616;2023-09-12T12:53:46;14.48;;;3.95;;
37677;SDS011;23517;50.390;8.616;2023-09-12T12:56:26;13.63;;;4.00;;
37677;SDS011;23517;50.390;8.616;2023-09-12T12:58:57;10.00;;;4.00;;
37677;SDS011;23517;50.390;8.616;2023-09-12T13:01:29;23.50;;;4.20;;
37677;SDS011;23517;50.390;8.616;2023-09-12T13:03:56;12.23;;;4.50;;
37677;SDS011;23517;50.390;8.616;2023-09-12T13:06:23;11.82;;;3.65;;
37677;SDS011;23517;50.390;8.616;2023-09-12T13:08:51;13.77;;;4.15;;
37677;SDS011;23517;50.390;8.616;2023-09-12T13:11:18;15.00;;;4.53;;
37677;SDS011;23517;50.390;8.616;2023-09-12T13:13:47;13.18;;;4.20;;
37677;SDS011;23517;50.390;8.616;2023-09-12T13:16:17;12.73;;;4.32;;
37677;SDS011;23517;50.390;8.616;2023-09-12T13:18:45;15.70;;;4.50;;
37677;SDS011;23517;50.390;8.616;2023-09-12T13:21:11;17.15;;;4.30;;
37677;SDS011;23517;50.390;8.616;2023-09-12T13:23:38;11.88;;;3.85;;
37677;SDS011;23517;50.390;8.616;2023-09-12T13:26:07;17.58;;;4.38;;
37677;SDS011;23517;50.390;8.616;2023-09-12T13:28:35;14.85;;;4.43;;
37677;SDS011;23517;50.390;8.616;2023-09-12T13:31:02;15.68;;;4.72;;
37677;SDS011;23517;50.390;8.616;2023-09-12T13:33:31;15.13;;;4.40;;
37677;SDS011;23517;50.390;8.616;2023-09-12T13:35:58;14.70;;;4.55;;
37677;SDS011;23517;50.390;8.616;2023-09-12T13:38:25;18.23;;;4.70;;
37677;SDS011;23517;50.390;8.616;2023-09-12T13:40:51;19.48;;;4.72;;
37677;SDS011;23517;50.390;8.616;2023-09-12T13:43:18;21.08;;;4.70;;
37677;SDS011;23517;50.390;8.616;2023-09-12T13:45:46;18.33;;;4.85;;
37677;SDS011;23517;50.390;8.616;2023-09-12T13:48:13;16.67;;;4.50;;
37677;SDS011;23517;50.390;8.616;2023-09-12T13:50:40;17.35;;;4.60;;
37677;SDS011;23517;50.390;8.616;2023-09-12T13:53:09;13.60;;;4.80;;
37677;SDS011;23517;50.390;8.616;2023-09-12T13:55:36;13.18;;;5.05;;
37677;SDS011;23517;50.390;8.616;2023-09-12T13:58:23;13.50;;;4.55;;
37677;SDS011;23517;50.390;8.616;2023-09-12T14:00:58;13.48;;;4.35;;
37677;SDS011;23517;50.390;8.616;2023-09-12T14:03:25;16.52;;;4.93;;
37677;SDS011;23517;50.390;8.616;2023-09-12T14:05:55;15.90;;;4.55;;
37677;SDS011;23517;50.390;8.616;2023-09-12T14:08:22;12.00;;;4.28;;
37677;SDS011;23517;50.390;8.616;2023-09-12T14:10:49;16.48;;;4.80;;
37677;SDS011;23517;50.390;8.616;2023-09-12T14:13:17;11.25;;;3.95;;
37677;SDS011;23517;50.390;8.616;2023-09-12T14:15:48;11.50;;;4.65;;
37677;SDS011;23517;50.390;8.616;2023-09-12T14:18:17;14.80;;;4.78;;
37677;SDS011;23517;50.390;8.616;2023-09-12T14:20:47;19.60;;;5.10;;
37677;SDS011;23517;50.390;8.616;2023-09-12T14:23:16;15.88;;;4.75;;
37677;SDS011;23517;50.390;8.616;2023-09-12T14:25:43;15.07;;;4.43;;
37677;SDS011;23517;50.390;8.616;2023-09-12T14:28:12;15.27;;;4.53;;
37677;SDS011;23517;50.390;8.616;2023-09-12T14:30:40;20.30;;;4.93;;
37677;SDS011;23517;50.390;8.616;2023-09-12T14:33:11;18.10;;;4.68;;
37677;SDS011;23517;50.390;8.616;2023-09-12T14:35:43;18.85;;;4.22;;
37677;SDS011;23517;50.390;8.616;2023-09-12T14:38:10;16.45;;;4.70;;
37677;SDS011;23517;50.390;8.616;2023-09-12T14:40:37;14.25;;;4.57;;
37677;SDS011;23517;50.390;8.616;2023-09-12T14:43:04;15.00;;;4.38;;
37677;SDS011;23517;50.390;8.616;2023-09-12T14:45:32;13.70;;;4.53;;
37677;SDS011;23517;50.390;8.616;2023-09-12T14:48:00;13.88;;;4.55;;